Terminal Aerodrome Forecast
Issued by NWS

Home | Current Version | Previous Version | Graphics & Text | Print | Product List | Glossary On
Versions: 1 2 3 4 5 6 7 8 9 10 11 12 13 14 15 16 17 18 19 20 21 22 23 24 25 26 27 28
000
FTUS42 KMHX 201132 CCA
TAFPGV
TAF COR
KPGV 201132Z 2012/2112 23008KT P6SM SCT005 BKN035
     FM201500 21015G22KT P6SM SCT035
     FM210500 27005KT P6SM BKN030
      AMD LTD TO CLD VIS AND WIND=

USA.gov is the U.S. government's official web portal to all federal, state and local government web resources and services.